Time;durP1;ratioP1;P1;durP2;ratioP2;P2;SDS_P1;SDS_P2;PMS_P1;PMS_P2;Temp;Humidity;BMP_temperature;BMP_pressure;BME280_temperature;BME280_humidity;BME280_pressure;Samples;Min_cycle;Max_cycle;Signal;HPM_P1;HPM_P2
2021/11/26 00:01:17;;;;;;;1999.90;999.90;;;;;;;;;;4969677;28;20211;-71
2021/11/26 00:04:02;;;;;;;1999.90;999.90;;;;;;;;;;4953692;28;20308;-72
2021/11/26 00:06:47;;;;;;;1999.90;999.90;;;;;;;;;;4957398;28;20220;-71
2021/11/26 00:09:31;;;;;;;1999.90;999.90;;;;;;;;;;4953516;28;20212;-73
2021/11/26 00:12:16;;;;;;;1999.90;999.90;;;;;;;;;;4959221;28;20212;-72
2021/11/26 00:15:13;;;;;;;1999.90;999.90;;;;;;;;;;4959602;28;20221;-71
2021/11/26 00:18:05;;;;;;;1999.90;999.90;;;;;;;;;;4956454;28;20931;-72
2021/11/26 00:20:50;;;;;;;1999.90;999.90;;;;;;;;;;4953322;28;20205;-71
2021/11/26 00:23:34;;;;;;;1999.90;999.90;;;;;;;;;;4953511;29;20224;-71
2021/11/26 00:26:19;;;;;;;1999.90;999.90;;;;;;;;;;4953395;29;20204;-71
2021/11/26 00:29:05;;;;;;;1999.90;999.90;;;;;;;;;;4952999;29;20786;-71
2021/11/26 00:31:49;;;;;;;1999.90;999.90;;;;;;;;;;4953688;29;20208;-71
2021/11/26 00:34:36;;;;;;;1999.90;999.90;;;;;;;;;;4953508;28;20225;-71
2021/11/26 00:37:22;;;;;;;1999.90;999.90;;;;;;;;;;4953479;29;20329;-72
2021/11/26 00:40:08;;;;;;;1999.90;999.90;;;;;;;;;;4953391;29;20212;-72
2021/11/26 00:42:53;;;;;;;1999.90;999.90;;;;;;;;;;4953442;29;20596;-71
2021/11/26 00:45:38;;;;;;;1999.90;999.90;;;;;;;;;;4953099;29;20778;-73
2021/11/26 00:48:23;;;;;;;1999.90;999.90;;;;;;;;;;4953283;29;20204;-71
2021/11/26 00:51:10;;;;;;;1999.90;999.90;;;;;;;;;;4953415;29;20727;-74
2021/11/26 00:53:55;;;;;;;1999.90;999.90;;;;;;;;;;4953173;28;20243;-71
2021/11/26 00:56:39;;;;;;;1999.90;999.90;;;;;;;;;;4953380;29;20225;-71
2021/11/26 00:59:24;;;;;;;1999.90;999.90;;;;;;;;;;4952806;28;20209;-70
2021/11/26 01:02:09;;;;;;;1999.90;999.90;;;;;;;;;;4953057;29;20208;-72
2021/11/26 01:04:54;;;;;;;1999.90;999.90;;;;;;;;;;4953286;29;20611;-71
2021/11/26 01:07:41;;;;;;;1999.90;999.90;;;;;;;;;;4953070;29;20217;-74
2021/11/26 01:10:27;;;;;;;1999.90;999.90;;;;;;;;;;4954643;28;20283;-71
2021/11/26 01:13:12;;;;;;;1999.90;999.90;;;;;;;;;;4956713;29;20225;-71
2021/11/26 01:15:56;;;;;;;1999.90;999.90;;;;;;;;;;4956232;29;20421;-70
2021/11/26 01:18:41;;;;;;;1999.90;999.90;;;;;;;;;;4956358;28;20431;-70
2021/11/26 01:21:26;;;;;;;1999.90;999.90;;;;;;;;;;4956388;28;20702;-73
2021/11/26 01:24:13;;;;;;;1999.90;999.90;;;;;;;;;;4956391;29;20240;-70
2021/11/26 01:26:59;;;;;;;1999.90;999.90;;;;;;;;;;4964230;28;21040;-68
2021/11/26 01:29:44;;;;;;;1999.90;999.90;;;;;;;;;;4956514;28;20279;-69
2021/11/26 01:32:29;;;;;;;1999.90;999.90;;;;;;;;;;4960079;28;20216;-72
2021/11/26 01:35:14;;;;;;;1999.90;999.90;;;;;;;;;;4963659;28;20223;-72
2021/11/26 01:37:58;;;;;;;1999.90;999.90;;;;;;;;;;4971035;28;20217;-69
2021/11/26 01:40:45;;;;;;;1999.90;999.90;;;;;;;;;;4958838;28;20405;-74
2021/11/26 01:43:30;;;;;;;1999.90;999.90;;;;;;;;;;4968452;28;20231;-72
2021/11/26 01:46:15;;;;;;;1999.90;999.90;;;;;;;;;;4975295;28;20196;-71
2021/11/26 01:49:00;;;;;;;1999.90;999.90;;;;;;;;;;4971229;28;20216;-73
2021/11/26 01:51:45;;;;;;;1999.90;999.90;;;;;;;;;;4974350;28;20215;-70
2021/11/26 01:54:30;;;;;;;1999.90;999.90;;;;;;;;;;4972599;28;20248;-70
2021/11/26 01:57:18;;;;;;;1999.90;999.90;;;;;;;;;;4973866;28;20325;-70
2021/11/26 02:00:05;;;;;;;1999.90;999.90;;;;;;;;;;4973735;28;20219;-71
2021/11/26 02:02:50;;;;;;;1999.90;999.90;;;;;;;;;;4973488;28;20295;-71
2021/11/26 02:05:35;;;;;;;1999.90;999.90;;;;;;;;;;4974644;28;20227;-71
2021/11/26 02:08:19;;;;;;;1999.90;999.90;;;;;;;;;;4973012;28;20290;-71
2021/11/26 02:11:05;;;;;;;1999.90;999.90;;;;;;;;;;4974854;28;20711;-71
2021/11/26 02:13:51;;;;;;;1999.90;999.90;;;;;;;;;;4973739;28;20235;-69
2021/11/26 02:16:41;;;;;;;1999.90;999.90;;;;;;;;;;4955135;28;20298;-71
2021/11/26 02:19:27;;;;;;;1999.90;999.90;;;;;;;;;;4967856;28;20204;-71
2021/11/26 02:22:14;;;;;;;1999.90;999.90;;;;;;;;;;4972896;28;20288;-71
2021/11/26 02:24:59;;;;;;;1999.90;999.90;;;;;;;;;;4973420;28;20726;-71
2021/11/26 02:27:44;;;;;;;1999.90;999.90;;;;;;;;;;4973032;28;20211;-70
2021/11/26 02:30:29;;;;;;;1999.90;999.90;;;;;;;;;;4967632;28;20215;-71
2021/11/26 02:33:15;;;;;;;1999.90;999.90;;;;;;;;;;4973183;28;20235;-69
2021/11/26 02:36:00;;;;;;;1999.90;999.90;;;;;;;;;;4974416;28;20213;-71
2021/11/26 02:38:46;;;;;;;1999.90;999.90;;;;;;;;;;4970678;28;20431;-70
2021/11/26 02:41:31;;;;;;;1999.90;999.90;;;;;;;;;;4956171;28;20211;-73
2021/11/26 02:44:16;;;;;;;1999.90;999.90;;;;;;;;;;4966116;28;20220;-70
2021/11/26 02:47:01;;;;;;;1999.90;999.90;;;;;;;;;;4973385;28;20212;-70
2021/11/26 02:49:46;;;;;;;1999.90;999.90;;;;;;;;;;4973880;28;20585;-71
2021/11/26 02:52:31;;;;;;;1999.90;999.90;;;;;;;;;;4972549;28;20211;-70
2021/11/26 02:55:18;;;;;;;1999.90;999.90;;;;;;;;;;4966087;28;20215;-70
2021/11/26 02:58:04;;;;;;;1999.90;999.90;;;;;;;;;;4966449;28;20212;-70
2021/11/26 03:00:50;;;;;;;1999.90;999.90;;;;;;;;;;4954582;28;20299;-70
2021/11/26 03:03:35;;;;;;;1999.90;999.90;;;;;;;;;;4953279;28;20421;-70
2021/11/26 03:06:20;;;;;;;1999.90;999.90;;;;;;;;;;4956435;28;20221;-69
2021/11/26 03:09:05;;;;;;;1999.90;999.90;;;;;;;;;;4970076;28;20211;-66
2021/11/26 03:11:52;;;;;;;1999.90;999.90;;;;;;;;;;4969890;28;20299;-67
2021/11/26 03:14:37;;;;;;;1999.90;999.90;;;;;;;;;;4953698;29;20217;-68
2021/11/26 03:17:24;;;;;;;1999.90;999.90;;;;;;;;;;4971975;28;20212;-69
2021/11/26 03:20:10;;;;;;;1999.90;999.90;;;;;;;;;;4968418;28;20219;-69
2021/11/26 03:22:56;;;;;;;1999.90;999.90;;;;;;;;;;4971417;28;20351;-71
2021/11/26 03:25:42;;;;;;;1999.90;999.90;;;;;;;;;;4972418;28;20315;-71
2021/11/26 03:28:29;;;;;;;1999.90;999.90;;;;;;;;;;4970332;28;20256;-70
2021/11/26 03:31:14;;;;;;;1999.90;999.90;;;;;;;;;;4961804;28;20211;-72
2021/11/26 03:33:59;;;;;;;1999.90;999.90;;;;;;;;;;4972057;28;20231;-75
2021/11/26 03:36:43;;;;;;;1999.90;999.90;;;;;;;;;;4973019;28;20609;-69
2021/11/26 03:39:28;;;;;;;1999.90;999.90;;;;;;;;;;4973218;28;20208;-71
2021/11/26 03:42:13;;;;;;;1999.90;999.90;;;;;;;;;;4973454;28;20229;-71
2021/11/26 03:45:01;;;;;;;1999.90;999.90;;;;;;;;;;4973054;28;20618;-72
2021/11/26 03:47:46;;;;;;;1999.90;999.90;;;;;;;;;;4973236;28;20328;-73
2021/11/26 03:50:31;;;;;;;1999.90;999.90;;;;;;;;;;4973020;28;20208;-70
2021/11/26 03:53:16;;;;;;;1999.90;999.90;;;;;;;;;;4973007;28;20248;-70
2021/11/26 03:56:01;;;;;;;1999.90;999.90;;;;;;;;;;4971672;28;20201;-70
2021/11/26 03:58:46;;;;;;;1999.90;999.90;;;;;;;;;;4965513;28;20220;-71
2021/11/26 04:01:33;;;;;;;1999.90;999.90;;;;;;;;;;4954326;28;20915;-70
2021/11/26 04:04:17;;;;;;;1999.90;999.90;;;;;;;;;;4952886;28;20228;-70
2021/11/26 04:07:02;;;;;;;1999.90;999.90;;;;;;;;;;4953201;28;20274;-70
2021/11/26 04:09:47;;;;;;;1999.90;999.90;;;;;;;;;;4952773;28;20216;-71
2021/11/26 04:12:32;;;;;;;1999.90;999.90;;;;;;;;;;4971187;28;20787;-69
2021/11/26 04:15:18;;;;;;;1999.90;999.90;;;;;;;;;;4962154;28;20638;-72
2021/11/26 04:18:04;;;;;;;1999.90;999.90;;;;;;;;;;4965344;28;20339;-70
2021/11/26 04:20:49;;;;;;;1999.90;999.90;;;;;;;;;;4972659;28;20211;-72
2021/11/26 04:23:34;;;;;;;1999.90;999.90;;;;;;;;;;4972612;28;20283;-73
2021/11/26 04:26:19;;;;;;;1999.90;999.90;;;;;;;;;;4966745;28;20794;-67
2021/11/26 04:29:04;;;;;;;1999.90;999.90;;;;;;;;;;4969445;28;20224;-73
2021/11/26 04:31:49;;;;;;;1999.90;999.90;;;;;;;;;;4971133;28;20705;-71
2021/11/26 04:34:35;;;;;;;1999.90;999.90;;;;;;;;;;4972868;28;20232;-70
2021/11/26 04:37:20;;;;;;;1999.90;999.90;;;;;;;;;;4972809;28;20590;-74
2021/11/26 04:40:08;;;;;;;1999.90;999.90;;;;;;;;;;4972438;28;20786;-70
2021/11/26 04:42:53;;;;;;;1999.90;999.90;;;;;;;;;;4972854;28;20208;-73
2021/11/26 04:45:38;;;;;;;1999.90;999.90;;;;;;;;;;4971949;28;20239;-71
2021/11/26 04:48:24;;;;;;;1999.90;999.90;;;;;;;;;;4971863;28;20216;-72
2021/11/26 04:51:10;;;;;;;1999.90;999.90;;;;;;;;;;4972390;28;20228;-71
2021/11/26 04:53:55;;;;;;;1999.90;999.90;;;;;;;;;;4974567;28;20597;-71
2021/11/26 04:56:40;;;;;;;1999.90;999.90;;;;;;;;;;4975396;28;20783;-72
2021/11/26 04:59:25;;;;;;;1999.90;999.90;;;;;;;;;;4975543;28;20206;-71
2021/11/26 05:02:10;;;;;;;1999.90;999.90;;;;;;;;;;4976248;28;20204;-70
2021/11/26 05:04:55;;;;;;;1999.90;999.90;;;;;;;;;;4975981;28;20228;-70
2021/11/26 05:07:41;;;;;;;1999.90;999.90;;;;;;;;;;4976261;28;20208;-71
2021/11/26 05:10:27;;;;;;;1999.90;999.90;;;;;;;;;;4976219;28;20216;-70
2021/11/26 05:13:13;;;;;;;1999.90;999.90;;;;;;;;;;4976388;28;20352;-71
2021/11/26 05:15:58;;;;;;;1999.90;999.90;;;;;;;;;;4976195;28;20719;-72
2021/11/26 05:18:44;;;;;;;1999.90;999.90;;;;;;;;;;4975863;28;20211;-72
2021/11/26 05:21:29;;;;;;;1999.90;999.90;;;;;;;;;;4976131;28;20707;-71
2021/11/26 05:24:15;;;;;;;1999.90;999.90;;;;;;;;;;4974640;28;20442;-71
2021/11/26 05:27:00;;;;;;;1999.90;999.90;;;;;;;;;;4969649;28;20239;-71
2021/11/26 05:29:45;;;;;;;1999.90;999.90;;;;;;;;;;4975622;28;20343;-69
2021/11/26 05:32:30;;;;;;;1999.90;999.90;;;;;;;;;;4975630;28;20263;-73
2021/11/26 05:35:15;;;;;;;1999.90;999.90;;;;;;;;;;4975407;28;20227;-72
2021/11/26 05:38:00;;;;;;;1999.90;999.90;;;;;;;;;;4975355;28;20322;-69
2021/11/26 05:40:47;;;;;;;1999.90;999.90;;;;;;;;;;4975288;28;20208;-72
2021/11/26 05:43:32;;;;;;;1999.90;999.90;;;;;;;;;;4973324;28;20307;-70
2021/11/26 05:46:17;;;;;;;1999.90;999.90;;;;;;;;;;4973607;28;20248;-71
2021/11/26 05:49:02;;;;;;;1999.90;999.90;;;;;;;;;;4972667;28;20573;-71
2021/11/26 05:51:47;;;;;;;1999.90;999.90;;;;;;;;;;4974442;28;20215;-71
2021/11/26 05:54:32;;;;;;;1999.90;999.90;;;;;;;;;;4972183;28;20244;-73
2021/11/26 05:57:18;;;;;;;1999.90;999.90;;;;;;;;;;4971001;28;20208;-70
2021/11/26 06:00:04;;;;;;;1999.90;999.90;;;;;;;;;;4970632;28;20212;-71
2021/11/26 06:02:49;;;;;;;1999.90;999.90;;;;;;;;;;4974971;28;20762;-71
2021/11/26 06:05:34;;;;;;;1999.90;999.90;;;;;;;;;;4955438;28;20229;-71
2021/11/26 06:08:19;;;;;;;1999.90;999.90;;;;;;;;;;4966910;28;20287;-71
2021/11/26 06:11:04;;;;;;;1999.90;999.90;;;;;;;;;;4974997;28;20204;-70
2021/11/26 06:13:50;;;;;;;1999.90;999.90;;;;;;;;;;4974898;28;20396;-73
2021/11/26 06:16:35;;;;;;;1999.90;999.90;;;;;;;;;;4974896;28;20208;-72
2021/11/26 06:19:20;;;;;;;1999.90;999.90;;;;;;;;;;4974549;28;20585;-71
2021/11/26 06:22:05;;;;;;;1999.90;999.90;;;;;;;;;;4970458;28;20699;-70
2021/11/26 06:24:50;;;;;;;1999.90;999.90;;;;;;;;;;4972581;28;20259;-68
2021/11/26 06:27:35;;;;;;;1999.90;999.90;;;;;;;;;;4974574;28;20200;-69
2021/11/26 06:30:22;;;;;;;1999.90;999.90;;;;;;;;;;4958943;28;20216;-68
2021/11/26 06:33:07;;;;;;;1999.90;999.90;;;;;;;;;;4958615;28;20345;-67
2021/11/26 06:35:52;;;;;;;1999.90;999.90;;;;;;;;;;4955814;28;20295;-70
2021/11/26 06:38:37;;;;;;;1999.90;999.90;;;;;;;;;;4957828;28;20212;-71
2021/11/26 06:41:22;;;;;;;1999.90;999.90;;;;;;;;;;4973240;28;20584;-69
2021/11/26 06:44:07;;;;;;;1999.90;999.90;;;;;;;;;;4961879;28;20231;-71
2021/11/26 06:46:53;;;;;;;1999.90;999.90;;;;;;;;;;4968205;28;20491;-71
2021/11/26 06:49:38;;;;;;;1999.90;999.90;;;;;;;;;;4954090;28;20703;-68
2021/11/26 06:52:23;;;;;;;1999.90;999.90;;;;;;;;;;4954009;28;20217;-68
2021/11/26 06:55:09;;;;;;;1999.90;999.90;;;;;;;;;;4954101;28;20252;-69
2021/11/26 06:57:54;;;;;;;1999.90;999.90;;;;;;;;;;4953966;28;20204;-67
2021/11/26 07:00:39;;;;;;;1999.90;999.90;;;;;;;;;;4954266;28;20318;-71
2021/11/26 07:03:25;;;;;;;1999.90;999.90;;;;;;;;;;4954679;29;20596;-67
2021/11/26 07:06:11;;;;;;;1999.90;999.90;;;;;;;;;;4954264;28;20228;-68
2021/11/26 07:08:56;;;;;;;1999.90;999.90;;;;;;;;;;4953843;28;20249;-67
2021/11/26 07:11:41;;;;;;;1999.90;999.90;;;;;;;;;;4953761;28;20212;-73
2021/11/26 07:14:26;;;;;;;1999.90;999.90;;;;;;;;;;4967957;28;20228;-68
2021/11/26 07:17:12;;;;;;;1999.90;999.90;;;;;;;;;;4965501;28;20571;-71
2021/11/26 07:19:58;;;;;;;1999.90;999.90;;;;;;;;;;4964583;28;20208;-70
2021/11/26 07:22:44;;;;;;;1999.90;999.90;;;;;;;;;;4971438;28;20219;-70
2021/11/26 07:25:29;;;;;;;1999.90;999.90;;;;;;;;;;4970474;28;20220;-71
2021/11/26 07:28:14;;;;;;;1999.90;999.90;;;;;;;;;;4972818;28;20215;-71
2021/11/26 07:30:59;;;;;;;1999.90;999.90;;;;;;;;;;4972716;28;20629;-71
2021/11/26 07:33:45;;;;;;;1999.90;999.90;;;;;;;;;;4965927;28;20266;-71
2021/11/26 07:36:31;;;;;;;1999.90;999.90;;;;;;;;;;4968350;28;20267;-70
2021/11/26 07:39:16;;;;;;;1999.90;999.90;;;;;;;;;;4970382;28;20216;-71
2021/11/26 07:42:03;;;;;;;1999.90;999.90;;;;;;;;;;4971750;28;20742;-71
2021/11/26 07:44:48;;;;;;;1999.90;999.90;;;;;;;;;;4966540;28;20699;-71
2021/11/26 07:47:32;;;;;;;1999.90;999.90;;;;;;;;;;4969994;28;20236;-69
2021/11/26 07:50:18;;;;;;;1999.90;999.90;;;;;;;;;;4969579;28;20231;-70
2021/11/26 07:53:04;;;;;;;1999.90;999.90;;;;;;;;;;4971017;28;20231;-71
2021/11/26 07:55:50;;;;;;;1999.90;999.90;;;;;;;;;;4965114;28;20670;-70
2021/11/26 07:58:35;;;;;;;1999.90;999.90;;;;;;;;;;4965503;28;20208;-68
2021/11/26 08:01:20;;;;;;;1999.90;999.90;;;;;;;;;;4973117;28;20212;-73
2021/11/26 08:04:04;;;;;;;1999.90;999.90;;;;;;;;;;4973050;28;20232;-69
2021/11/26 08:06:49;;;;;;;1999.90;999.90;;;;;;;;;;4972864;28;20722;-70
2021/11/26 08:09:36;;;;;;;1999.90;999.90;;;;;;;;;;4971204;28;20418;-72
2021/11/26 08:12:21;;;;;;;1999.90;999.90;;;;;;;;;;4972766;28;20212;-70
2021/11/26 08:15:07;;;;;;;1999.90;999.90;;;;;;;;;;4972901;28;20227;-70
2021/11/26 08:17:52;;;;;;;1999.90;999.90;;;;;;;;;;4972606;28;20582;-70
2021/11/26 08:20:37;;;;;;;1999.90;999.90;;;;;;;;;;4975154;28;20235;-70
2021/11/26 08:23:22;;;;;;;1999.90;999.90;;;;;;;;;;4976764;28;20226;-70
2021/11/26 08:26:08;;;;;;;1999.90;999.90;;;;;;;;;;4976773;28;20340;-70
2021/11/26 08:28:54;;;;;;;1999.90;999.90;;;;;;;;;;4976439;28;20706;-71
2021/11/26 08:31:39;;;;;;;1999.90;999.90;;;;;;;;;;4976583;28;20291;-69
2021/11/26 08:34:24;;;;;;;1999.90;999.90;;;;;;;;;;4975523;28;20419;-70
2021/11/26 08:37:08;;;;;;;1999.90;999.90;;;;;;;;;;4976405;28;20200;-71
2021/11/26 08:39:53;;;;;;;1999.90;999.90;;;;;;;;;;4976399;28;20577;-71
2021/11/26 08:42:39;;;;;;;1999.90;999.90;;;;;;;;;;4976329;28;20203;-70
2021/11/26 08:45:25;;;;;;;1999.90;999.90;;;;;;;;;;4976416;28;20225;-70
2021/11/26 08:48:10;;;;;;;1999.90;999.90;;;;;;;;;;4976100;28;20231;-70
2021/11/26 08:50:55;;;;;;;1999.90;999.90;;;;;;;;;;4976406;28;20699;-71
2021/11/26 08:53:44;;;;;;;1999.90;999.90;;;;;;;;;;4976188;28;20235;-70
2021/11/26 08:56:29;;;;;;;1999.90;999.90;;;;;;;;;;4976370;28;20247;-71
2021/11/26 08:59:15;;;;;;;1999.90;999.90;;;;;;;;;;4975913;28;20208;-70
2021/11/26 09:02:00;;;;;;;1999.90;999.90;;;;;;;;;;4976213;28;20212;-71
2021/11/26 09:04:45;;;;;;;1999.90;999.90;;;;;;;;;;4976119;28;20228;-70
2021/11/26 09:07:30;;;;;;;1999.90;999.90;;;;;;;;;;4975944;28;20740;-69
2021/11/26 09:10:15;;;;;;;1999.90;999.90;;;;;;;;;;4973510;28;20220;-70
2021/11/26 09:13:01;;;;;;;1999.90;999.90;;;;;;;;;;4972678;28;20252;-71
2021/11/26 09:15:47;;;;;;;1999.90;999.90;;;;;;;;;;4966740;28;20208;-70
2021/11/26 09:18:32;;;;;;;1999.90;999.90;;;;;;;;;;4975543;28;20240;-71
2021/11/26 09:21:17;;;;;;;1999.90;999.90;;;;;;;;;;4958991;28;20228;-71
2021/11/26 09:24:02;;;;;;;1999.90;999.90;;;;;;;;;;4974636;28;20236;-71
2021/11/26 09:26:47;;;;;;;1999.90;999.90;;;;;;;;;;4975234;28;20230;-71
2021/11/26 09:29:32;;;;;;;1999.90;999.90;;;;;;;;;;4973652;28;20204;-71
2021/11/26 09:32:18;;;;;;;1999.90;999.90;;;;;;;;;;4968580;28;20443;-70
2021/11/26 09:35:04;;;;;;;1999.90;999.90;;;;;;;;;;4974750;28;20248;-70
2021/11/26 09:37:49;;;;;;;1999.90;999.90;;;;;;;;;;4971835;28;21375;-70
2021/11/26 09:40:34;;;;;;;1999.90;999.90;;;;;;;;;;4967185;28;20231;-71
2021/11/26 09:43:19;;;;;;;1999.90;999.90;;;;;;;;;;4974413;28;20231;-71
2021/11/26 09:46:05;;;;;;;1999.90;999.90;;;;;;;;;;4975261;28;20212;-71
2021/11/26 09:48:52;;;;;;;1999.90;999.90;;;;;;;;;;4967435;28;20268;-69
2021/11/26 09:51:36;;;;;;;1999.90;999.90;;;;;;;;;;4956044;29;20293;-72
2021/11/26 09:54:22;;;;;;;1999.90;999.90;;;;;;;;;;4966747;28;20279;-72
2021/11/26 09:57:07;;;;;;;1999.90;999.90;;;;;;;;;;4974819;28;20424;-72
2021/11/26 09:59:52;;;;;;;1999.90;999.90;;;;;;;;;;4973506;28;20216;-71
2021/11/26 10:02:37;;;;;;;1999.90;999.90;;;;;;;;;;4964619;28;20743;-70
2021/11/26 10:05:24;;;;;;;1999.90;999.90;;;;;;;;;;4971385;28;20212;-71
2021/11/26 10:08:10;;;;;;;1999.90;999.90;;;;;;;;;;4973557;28;20284;-70
2021/11/26 10:10:58;;;;;;;1999.90;999.90;;;;;;;;;;4975059;28;20593;-70
2021/11/26 10:13:43;;;;;;;1999.90;999.90;;;;;;;;;;4974760;28;20368;-70
2021/11/26 10:16:28;;;;;;;1999.90;999.90;;;;;;;;;;4974849;28;20208;-70
2021/11/26 10:19:14;;;;;;;1999.90;999.90;;;;;;;;;;4962857;28;20605;-71
2021/11/26 10:22:00;;;;;;;1999.90;999.90;;;;;;;;;;4968854;28;20257;-71
2021/11/26 10:24:56;;;;;;;1999.90;999.90;;;;;;;;;;4974515;28;20240;-71
2021/11/26 10:27:43;;;;;;;1999.90;999.90;;;;;;;;;;4970339;28;20255;-70
2021/11/26 10:30:29;;;;;;;1999.90;999.90;;;;;;;;;;4971773;28;20219;-74
2021/11/26 10:33:16;;;;;;;1999.90;999.90;;;;;;;;;;4971100;28;20231;-72
2021/11/26 10:36:02;;;;;;;1999.90;999.90;;;;;;;;;;4972976;28;20746;-71
2021/11/26 10:38:48;;;;;;;1999.90;999.90;;;;;;;;;;4972594;28;20339;-70
2021/11/26 10:41:35;;;;;;;1999.90;999.90;;;;;;;;;;4971769;28;20212;-72
2021/11/26 10:44:25;;;;;;;1999.90;999.90;;;;;;;;;;4971965;28;20240;-71
2021/11/26 10:47:16;;;;;;;1999.90;999.90;;;;;;;;;;4965228;28;20221;-71
2021/11/26 10:50:21;;;;;;;1999.90;999.90;;;;;;;;;;4974138;28;20213;-72
2021/11/26 10:59:14;;;;;;;1999.90;999.90;;;;;;;;;;4972759;28;20214;-71
2021/11/26 11:01:59;;;;;;;1999.90;999.90;;;;;;;;;;4974123;28;20727;-71
2021/11/26 11:04:49;;;;;;;1999.90;999.90;;;;;;;;;;4967878;28;20741;-71
2021/11/26 11:07:38;;;;;;;1999.90;999.90;;;;;;;;;;4970798;28;20312;-71
2021/11/26 11:10:27;;;;;;;1999.90;999.90;;;;;;;;;;4973791;28;20735;-71
2021/11/26 11:13:15;;;;;;;1999.90;999.90;;;;;;;;;;4961476;28;20731;-71
2021/11/26 11:16:07;;;;;;;1999.90;999.90;;;;;;;;;;4971111;28;20209;-70
2021/11/26 11:18:54;;;;;;;1999.90;999.90;;;;;;;;;;4970066;28;20427;-71
2021/11/26 11:21:38;;;;;;;1999.90;999.90;;;;;;;;;;4973749;28;20212;-70
2021/11/26 11:24:24;;;;;;;1999.90;999.90;;;;;;;;;;4972366;28;20232;-71
2021/11/26 11:27:09;;;;;;;1999.90;999.90;;;;;;;;;;4962988;28;20224;-71
2021/11/26 11:29:55;;;;;;;1999.90;999.90;;;;;;;;;;4973116;28;20211;-71
2021/11/26 11:32:40;;;;;;;1999.90;999.90;;;;;;;;;;4967558;28;20227;-71
2021/11/26 11:35:27;;;;;;;1999.90;999.90;;;;;;;;;;4968944;28;20213;-69
2021/11/26 11:38:13;;;;;;;1999.90;999.90;;;;;;;;;;4972903;28;20204;-70
2021/11/26 11:40:59;;;;;;;1999.90;999.90;;;;;;;;;;4972026;28;20324;-70
2021/11/26 11:43:47;;;;;;;1999.90;999.90;;;;;;;;;;4970509;28;20328;-71
2021/11/26 11:46:36;;;;;;;1999.90;999.90;;;;;;;;;;4970537;28;20748;-71
2021/11/26 11:49:25;;;;;;;1999.90;999.90;;;;;;;;;;4968646;28;20217;-72
2021/11/26 11:52:11;;;;;;;1999.90;999.90;;;;;;;;;;4970042;28;20823;-71
2021/11/26 11:54:56;;;;;;;1999.90;999.90;;;;;;;;;;4970522;28;20754;-71
2021/11/26 11:57:41;;;;;;;1999.90;999.90;;;;;;;;;;4970547;28;20218;-71
2021/11/26 12:00:36;;;;;;;1999.90;999.90;;;;;;;;;;4967314;28;20218;-71
2021/11/26 12:03:23;;;;;;;1999.90;999.90;;;;;;;;;;4970886;28;20230;-71
2021/11/26 12:06:08;;;;;;;1999.90;999.90;;;;;;;;;;4966554;28;20262;-71
2021/11/26 12:08:55;;;;;;;1999.90;999.90;;;;;;;;;;4968855;28;20597;-72
2021/11/26 12:11:40;;;;;;;1999.90;999.90;;;;;;;;;;4970791;28;20502;-72
2021/11/26 12:14:26;;;;;;;1999.90;999.90;;;;;;;;;;4963481;28;20439;-73
2021/11/26 12:17:15;;;;;;;1999.90;999.90;;;;;;;;;;4970024;28;20217;-72
2021/11/26 12:20:02;;;;;;;1999.90;999.90;;;;;;;;;;4969894;28;20224;-71
2021/11/26 12:22:52;;;;;;;1999.90;999.90;;;;;;;;;;4966945;28;20299;-72
2021/11/26 12:25:44;;;;;;;1999.90;999.90;;;;;;;;;;4968846;28;20234;-71
2021/11/26 12:28:38;;;;;;;1999.90;999.90;;;;;;;;;;4963540;28;20276;-72
2021/11/26 12:31:29;;;;;;;1999.90;999.90;;;;;;;;;;4969970;28;20744;-73
2021/11/26 12:34:15;;;;;;;1999.90;999.90;;;;;;;;;;4970034;28;20730;-71
2021/11/26 12:37:01;;;;;;;1999.90;999.90;;;;;;;;;;4971093;28;20213;-70
2021/11/26 12:39:47;;;;;;;1999.90;999.90;;;;;;;;;;4968595;28;20710;-71
2021/11/26 12:42:32;;;;;;;1999.90;999.90;;;;;;;;;;4968158;28;20437;-70
2021/11/26 12:45:17;;;;;;;1999.90;999.90;;;;;;;;;;4972375;28;20228;-71
2021/11/26 12:48:06;;;;;;;1999.90;999.90;;;;;;;;;;4969379;28;20228;-71
2021/11/26 12:51:04;;;;;;;1999.90;999.90;;;;;;;;;;4967284;28;20220;-70
2021/11/26 12:53:50;;;;;;;1999.90;999.90;;;;;;;;;;4968915;28;20328;-71
2021/11/26 12:56:39;;;;;;;1999.90;999.90;;;;;;;;;;4965536;28;20294;-71
2021/11/26 12:59:31;;;;;;;1999.90;999.90;;;;;;;;;;4968411;28;20212;-70
2021/11/26 13:02:19;;;;;;;1999.90;999.90;;;;;;;;;;4971781;28;20213;-70
2021/11/26 13:05:08;;;;;;;1999.90;999.90;;;;;;;;;;4971776;28;20652;-69
2021/11/26 13:07:54;;;;;;;1999.90;999.90;;;;;;;;;;4971951;28;20228;-70
2021/11/26 13:10:41;;;;;;;1999.90;999.90;;;;;;;;;;4968873;28;20310;-69
2021/11/26 13:13:28;;;;;;;1999.90;999.90;;;;;;;;;;4973895;28;20307;-68
2021/11/26 13:16:14;;;;;;;1999.90;999.90;;;;;;;;;;4973986;28;20239;-70
2021/11/26 13:19:00;;;;;;;1999.90;999.90;;;;;;;;;;4972921;28;20227;-70
2021/11/26 13:21:44;;;;;;;1999.90;999.90;;;;;;;;;;4974616;28;20212;-70
2021/11/26 13:24:29;;;;;;;1999.90;999.90;;;;;;;;;;4973057;28;20268;-71
2021/11/26 13:27:16;;;;;;;1999.90;999.90;;;;;;;;;;4970293;28;20288;-71
2021/11/26 13:30:01;;;;;;;1999.90;999.90;;;;;;;;;;4969449;28;20275;-72
2021/11/26 13:32:46;;;;;;;1999.90;999.90;;;;;;;;;;4973650;28;20299;-72
2021/11/26 13:35:31;;;;;;;1999.90;999.90;;;;;;;;;;4968993;28;20910;-73
2021/11/26 13:38:21;;;;;;;1999.90;999.90;;;;;;;;;;4969502;28;20200;-73
2021/11/26 13:41:10;;;;;;;1999.90;999.90;;;;;;;;;;4970870;28;20288;-70
2021/11/26 13:43:57;;;;;;;1999.90;999.90;;;;;;;;;;4971170;28;20233;-72
2021/11/26 13:46:43;;;;;;;1999.90;999.90;;;;;;;;;;4972946;28;20811;-71
2021/11/26 13:49:28;;;;;;;1999.90;999.90;;;;;;;;;;4971204;28;20240;-71
2021/11/26 13:52:13;;;;;;;1999.90;999.90;;;;;;;;;;4970242;28;20709;-72
2021/11/26 13:54:58;;;;;;;1999.90;999.90;;;;;;;;;;4967668;28;20239;-72
2021/11/26 13:57:43;;;;;;;1999.90;999.90;;;;;;;;;;4965442;28;20303;-72
2021/11/26 14:00:30;;;;;;;1999.90;999.90;;;;;;;;;;4970957;28;20211;-71
2021/11/26 14:03:15;;;;;;;1999.90;999.90;;;;;;;;;;4970107;28;20449;-71
2021/11/26 14:06:13;;;;;;;1999.90;999.90;;;;;;;;;;4974717;28;20599;-71
2021/11/26 14:08:59;;;;;;;1999.90;999.90;;;;;;;;;;4967534;28;20231;-71
2021/11/26 14:11:47;;;;;;;1999.90;999.90;;;;;;;;;;4964746;28;20204;-71
2021/11/26 14:14:31;;;;;;;1999.90;999.90;;;;;;;;;;4972706;28;20773;-71
2021/11/26 14:17:24;;;;;;;1999.90;999.90;;;;;;;;;;4966073;28;20299;-70
2021/11/26 14:20:09;;;;;;;1999.90;999.90;;;;;;;;;;4972496;28;20211;-71
2021/11/26 14:22:55;;;;;;;1999.90;999.90;;;;;;;;;;4954818;28;20205;-70
2021/11/26 14:25:40;;;;;;;1999.90;999.90;;;;;;;;;;4972409;28;20762;-70
2021/11/26 14:28:25;;;;;;;1999.90;999.90;;;;;;;;;;4972647;28;20220;-70
2021/11/26 14:31:10;;;;;;;1999.90;999.90;;;;;;;;;;4957580;28;20220;-70
2021/11/26 14:34:00;;;;;;;1999.90;999.90;;;;;;;;;;4955240;29;20227;-71
2021/11/26 14:36:47;;;;;;;1999.90;999.90;;;;;;;;;;4962663;28;20340;-71
2021/11/26 14:39:33;;;;;;;1999.90;999.90;;;;;;;;;;4967869;28;20203;-71
2021/11/26 14:42:18;;;;;;;1999.90;999.90;;;;;;;;;;4972550;28;20212;-70
2021/11/26 14:45:05;;;;;;;1999.90;999.90;;;;;;;;;;4973732;28;20314;-71
2021/11/26 14:47:50;;;;;;;1999.90;999.90;;;;;;;;;;4974019;28;20575;-70
2021/11/26 14:50:36;;;;;;;1999.90;999.90;;;;;;;;;;4974354;28;20204;-71
2021/11/26 14:53:21;;;;;;;1999.90;999.90;;;;;;;;;;4974061;28;20231;-70
2021/11/26 14:56:07;;;;;;;1999.90;999.90;;;;;;;;;;4972728;28;20336;-69
2021/11/26 14:58:52;;;;;;;1999.90;999.90;;;;;;;;;;4973742;28;20212;-69
2021/11/26 15:01:40;;;;;;;1999.90;999.90;;;;;;;;;;4968624;28;20240;-68
2021/11/26 15:04:25;;;;;;;1999.90;999.90;;;;;;;;;;4965147;28;20255;-70
2021/11/26 15:07:12;;;;;;;1999.90;999.90;;;;;;;;;;4972111;28;20294;-69
2021/11/26 15:09:59;;;;;;;1999.90;999.90;;;;;;;;;;4969063;28;20228;-69
2021/11/26 15:12:46;;;;;;;1999.90;999.90;;;;;;;;;;4970132;28;20267;-69
2021/11/26 15:15:31;;;;;;;1999.90;999.90;;;;;;;;;;4969709;28;20216;-72
2021/11/26 15:18:16;;;;;;;1999.90;999.90;;;;;;;;;;4967266;28;20324;-71
2021/11/26 15:21:02;;;;;;;1999.90;999.90;;;;;;;;;;4961899;28;20708;-70
2021/11/26 15:23:49;;;;;;;1999.90;999.90;;;;;;;;;;4964600;28;20559;-71
2021/11/26 15:26:34;;;;;;;1999.90;999.90;;;;;;;;;;4970511;28;20762;-70
2021/11/26 15:29:19;;;;;;;1999.90;999.90;;;;;;;;;;4964189;28;20239;-70
2021/11/26 15:32:05;;;;;;;1999.90;999.90;;;;;;;;;;4962166;28;20212;-69